Time;durP1;ratioP1;P1;durP2;ratioP2;P2;SDS_P1;SDS_P2;PMS_P1;PMS_P2;Temp;Humidity;BMP_temperature;BMP_pressure;BME280_temperature;BME280_humidity;BME280_pressure;Samples;Min_cycle;Max_cycle;Signal;HPM_P1;HPM_P2
2022/01/28 00:02:03;;;;;;;64.35;42.95;;;22.40;95.20;;;;;;4221363;28;20044;-63
2022/01/28 00:04:16;;;;;;;65.25;42.10;;;22.40;95.30;;;;;;4225917;28;20145;-63
2022/01/28 00:06:20;;;;;;;64.82;44.03;;;22.50;95.30;;;;;;4214681;28;20048;-62
2022/01/28 00:08:24;;;;;;;87.65;57.67;;;22.50;95.40;;;;;;4212938;28;20044;-61
2022/01/28 00:10:29;;;;;;;94.55;62.70;;;22.50;95.20;;;;;;4215736;28;20395;-63
2022/01/28 00:12:34;;;;;;;92.68;60.92;;;22.50;95.20;;;;;;4213251;28;20086;-63
2022/01/28 00:38:47;;;;;;;50.83;34.47;;;22.90;95.10;;;;;;4209904;28;20043;-63
2022/01/28 00:40:51;;;;;;;54.30;34.83;;;22.90;95.10;;;;;;4211124;28;20047;-63
2022/01/28 00:42:55;;;;;;;50.17;33.28;;;22.90;94.70;;;;;;4211000;28;20048;-63
2022/01/28 00:45:01;;;;;;;52.83;35.63;;;23.00;94.50;;;;;;4211017;28;20139;-63
2022/01/28 00:47:05;;;;;;;51.13;35.17;;;23.00;94.40;;;;;;4212683;28;20101;-59
2022/01/28 00:49:10;;;;;;;52.10;35.38;;;23.10;94.10;;;;;;4210986;28;20522;-61
2022/01/28 00:51:14;;;;;;;51.53;35.10;;;23.20;94.20;;;;;;4212928;28;20133;-60
2022/01/28 00:53:19;;;;;;;50.83;34.38;;;23.20;94.20;;;;;;4213869;28;20092;-60
2022/01/28 00:55:23;;;;;;;51.83;35.67;;;23.20;94.10;;;;;;4211264;28;20092;-63
2022/01/28 00:57:27;;;;;;;53.80;34.95;;;23.30;94.10;;;;;;4212011;28;20163;-63
2022/01/28 00:59:31;;;;;;;56.72;37.92;;;23.30;94.10;;;;;;4208909;28;20044;-60
2022/01/28 01:01:35;;;;;;;63.22;35.88;;;23.30;94.00;;;;;;4210952;28;20040;-60
2022/01/28 01:03:40;;;;;;;103.15;39.78;;;23.30;94.10;;;;;;4210339;28;20052;-60
2022/01/28 01:05:44;;;;;;;87.03;36.83;;;23.40;94.00;;;;;;4211256;28;20154;-60
2022/01/28 01:07:49;;;;;;;63.92;31.33;;;23.40;93.80;;;;;;4212334;28;20127;-60
2022/01/28 01:09:53;;;;;;;52.08;31.35;;;23.50;93.70;;;;;;4212546;28;20047;-59
2022/01/28 01:11:58;;;;;;;49.67;28.55;;;23.50;93.70;;;;;;4212094;28;20105;-59
2022/01/28 01:14:02;;;;;;;48.97;27.52;;;23.60;93.80;;;;;;4213288;28;20036;-61
2022/01/28 01:16:08;;;;;;;46.42;27.13;;;23.60;93.70;;;;;;4193024;28;20530;-63
2022/01/28 01:22:22;;;;;;;36.22;21.65;;;23.70;93.00;;;;;;4206487;28;20040;-63
2022/01/28 01:24:29;;;;;;;31.45;19.13;;;23.70;92.60;;;;;;4210149;28;20064;-63
2022/01/28 01:26:36;;;;;;;32.05;18.67;;;23.80;92.50;;;;;;4204325;28;20035;-63
2022/01/28 01:28:41;;;;;;;25.75;17.27;;;23.80;92.10;;;;;;4193904;28;20053;-59
2022/01/28 01:30:46;;;;;;;30.55;18.23;;;23.90;92.10;;;;;;4210270;28;20059;-60
2022/01/28 01:32:51;;;;;;;29.30;17.38;;;23.90;92.00;;;;;;4209900;28;20056;-59
2022/01/28 01:34:55;;;;;;;32.13;18.80;;;23.90;92.00;;;;;;4208559;28;20064;-58
2022/01/28 01:36:59;;;;;;;31.75;18.75;;;24.00;92.00;;;;;;4211387;28;20044;-60
2022/01/28 01:39:04;;;;;;;56.80;17.55;;;24.00;92.00;;;;;;4212709;28;20842;-60
2022/01/28 01:41:14;;;;;;;41.00;16.33;;;24.10;91.80;;;;;;4213693;28;20043;-61
2022/01/28 01:52:10;;;;;;;55.15;14.70;;;24.20;91.80;;;;;;4211975;28;20044;-60
2022/01/28 01:54:14;;;;;;;46.80;15.45;;;24.20;91.50;;;;;;4211724;28;20059;-60
2022/01/28 01:56:19;;;;;;;33.28;14.75;;;24.30;91.60;;;;;;4210498;28;20582;-61
2022/01/28 01:58:30;;;;;;;50.72;15.43;;;24.20;91.60;;;;;;4211795;28;20646;-61
2022/01/28 02:00:35;;;;;;;26.42;13.00;;;24.30;91.70;;;;;;4209307;28;20051;-61
2022/01/28 02:02:39;;;;;;;46.60;14.15;;;24.40;91.70;;;;;;4196311;28;20497;-60
2022/01/28 02:04:43;;;;;;;31.13;14.00;;;24.40;91.70;;;;;;4210592;28;20071;-60
2022/01/28 02:06:47;;;;;;;25.10;13.30;;;24.40;91.70;;;;;;4209123;28;20078;-61
2022/01/28 02:08:52;;;;;;;31.42;13.93;;;24.50;91.70;;;;;;4211798;28;20052;-61
2022/01/28 02:10:58;;;;;;;27.20;12.05;;;24.50;91.60;;;;;;4211037;28;20036;-63
2022/01/28 02:13:02;;;;;;;33.42;12.82;;;24.50;91.20;;;;;;4212069;28;20044;-61
2022/01/28 02:15:06;;;;;;;31.35;11.57;;;24.60;91.40;;;;;;4193937;28;20135;-64
2022/01/28 02:17:11;;;;;;;33.80;12.70;;;24.60;91.20;;;;;;4212659;28;20486;-61
2022/01/28 02:19:15;;;;;;;34.55;13.95;;;24.60;91.20;;;;;;4210036;28;20040;-62
2022/01/28 02:21:19;;;;;;;22.80;11.38;;;24.60;91.10;;;;;;4212923;28;20755;-61
2022/01/28 02:23:23;;;;;;;19.60;11.75;;;24.70;91.10;;;;;;4213304;28;20051;-61
2022/01/28 02:25:29;;;;;;;25.38;12.07;;;24.70;91.10;;;;;;4212341;28;20063;-61
2022/01/28 02:27:33;;;;;;;25.67;12.52;;;24.70;91.10;;;;;;4213678;28;20044;-61
2022/01/28 02:29:38;;;;;;;28.08;12.75;;;24.80;91.30;;;;;;4218446;28;20589;-61
2022/01/28 02:31:43;;;;;;;21.63;12.00;;;24.90;91.30;;;;;;4214942;28;20078;-61
2022/01/28 02:33:48;;;;;;;24.10;12.77;;;24.90;91.20;;;;;;4211789;28;20387;-61
2022/01/28 02:35:52;;;;;;;20.63;11.40;;;24.90;91.20;;;;;;4213261;28;20051;-61
2022/01/28 02:37:57;;;;;;;23.40;11.80;;;25.00;91.10;;;;;;4213675;28;20047;-60
2022/01/28 02:40:01;;;;;;;22.40;11.73;;;25.10;91.10;;;;;;4212988;28;20056;-61
2022/01/28 02:42:16;;;;;;;22.10;11.75;;;25.10;91.10;;;;;;4213985;28;20730;-61
2022/01/28 02:46:40;;;;;;;25.88;12.30;;;25.10;90.80;;;;;;4213453;28;20059;-61
2022/01/28 02:48:59;;;;;;;20.60;11.48;;;25.20;90.90;;;;;;4212034;28;20567;-62
2022/01/28 02:51:17;;;;;;;31.35;12.50;;;25.20;90.90;;;;;;4208564;28;20115;-65
2022/01/28 02:53:25;;;;;;;18.33;11.30;;;25.30;90.80;;;;;;4211679;28;20062;-65
2022/01/28 02:55:34;;;;;;;24.45;11.88;;;25.30;90.50;;;;;;4211568;28;20040;-64
2022/01/28 02:57:50;;;;;;;27.00;12.27;;;25.30;90.50;;;;;;4213740;28;20083;-67
2022/01/28 02:59:54;;;;;;;51.78;14.57;;;25.40;90.50;;;;;;4199954;28;20032;-65
2022/01/28 03:01:58;;;;;;;27.67;14.88;;;25.40;90.40;;;;;;4215039;28;20036;-66
2022/01/28 03:04:05;;;;;;;27.13;16.65;;;25.50;90.20;;;;;;4213647;28;20046;-64
2022/01/28 03:06:10;;;;;;;26.38;17.23;;;25.50;90.30;;;;;;4220669;28;20043;-63
2022/01/28 03:08:14;;;;;;;26.25;16.05;;;25.50;90.20;;;;;;4214646;28;20127;-63
2022/01/28 03:12:48;;;;;;;21.60;12.65;;;25.60;90.50;;;;;;4214664;28;20040;-62
2022/01/28 03:17:06;;;;;;;22.20;12.60;;;25.70;90.10;;;;;;4215022;28;20032;-65
2022/01/28 03:19:17;;;;;;;22.10;11.63;;;25.80;90.40;;;;;;4199194;28;20054;-64
2022/01/28 03:23:38;;;;;;;;;;;25.80;89.90;;;;;;4214035;28;20713;-64
2022/01/28 03:25:43;;;;;;;17.67;11.35;;;25.90;90.10;;;;;;4216049;28;19928;-65
2022/01/28 03:27:54;;;;;;;19.60;12.15;;;25.90;89.60;;;;;;4214810;28;20048;-65
2022/01/28 03:29:58;;;;;;;18.77;12.00;;;26.00;89.60;;;;;;4216741;28;20087;-65
2022/01/28 03:32:04;;;;;;;20.55;12.80;;;26.00;89.50;;;;;;4215661;28;20040;-64
2022/01/28 03:34:08;;;;;;;20.80;11.60;;;26.00;89.30;;;;;;4214528;28;20072;-65
2022/01/28 03:36:13;;;;;;;16.98;11.82;;;26.10;89.40;;;;;;4215428;28;20105;-65
2022/01/28 03:38:18;;;;;;;19.90;11.60;;;26.10;89.30;;;;;;4215833;28;20043;-64
2022/01/28 03:40:22;;;;;;;19.52;11.63;;;26.20;88.90;;;;;;4213805;28;20070;-64
2022/01/28 03:42:27;;;;;;;19.20;10.68;;;26.20;88.70;;;;;;4216087;28;20104;-65
2022/01/28 03:44:31;;;;;;;18.77;11.38;;;26.20;88.50;;;;;;4215565;28;20052;-64
2022/01/28 03:46:35;;;;;;;16.60;10.80;;;26.30;88.40;;;;;;4202122;28;20072;-64
2022/01/28 03:48:40;;;;;;;16.83;10.88;;;26.30;88.60;;;;;;4215334;28;20044;-64
2022/01/28 03:50:44;;;;;;;18.95;10.85;;;26.40;88.50;;;;;;4201857;28;20045;-64
2022/01/28 03:52:49;;;;;;;17.85;10.60;;;26.40;88.20;;;;;;4214465;28;20138;-65
2022/01/28 03:54:53;;;;;;;17.58;10.70;;;26.40;88.00;;;;;;4214658;28;20044;-65
2022/01/28 03:56:57;;;;;;;21.23;10.95;;;26.50;87.90;;;;;;4218381;28;20481;-65
2022/01/28 03:59:01;;;;;;;20.63;10.80;;;26.50;87.70;;;;;;4215493;28;20055;-65
2022/01/28 04:01:13;;;;;;;15.65;10.18;;;26.60;87.80;;;;;;4213398;28;20097;-65
2022/01/28 04:12:12;;;;;;;22.80;11.10;;;26.80;87.40;;;;;;4214682;28;20058;-63
2022/01/28 04:14:39;;;;;;;17.63;10.93;;;26.80;88.00;;;;;;4230332;28;20039;-63
2022/01/28 04:18:57;;;;;;;18.23;10.25;;;27.00;87.90;;;;;;4224746;28;20073;-64
2022/01/28 04:21:01;;;;;;;17.02;10.60;;;27.00;87.50;;;;;;4214237;28;20044;-64
2022/01/28 04:23:05;;;;;;;14.68;10.30;;;27.00;87.10;;;;;;4214452;28;20529;-64
2022/01/28 04:25:10;;;;;;;17.25;10.55;;;27.10;87.10;;;;;;4216837;28;20044;-64
2022/01/28 04:27:14;;;;;;;17.95;10.10;;;27.20;86.80;;;;;;4209831;28;20477;-63
2022/01/28 04:29:18;;;;;;;18.25;10.80;;;27.20;86.90;;;;;;4229014;28;20046;-63
2022/01/28 04:31:22;;;;;;;26.60;10.43;;;27.30;86.80;;;;;;4210217;28;20524;-65
2022/01/28 04:33:28;;;;;;;17.38;10.27;;;27.30;86.20;;;;;;4218703;28;20081;-63
2022/01/28 04:35:33;;;;;;;16.92;10.52;;;27.30;85.90;;;;;;4216028;28;20039;-64
2022/01/28 04:37:52;;;;;;;19.27;10.95;;;27.30;85.90;;;;;;4221464;28;20036;-64
2022/01/28 04:40:04;;;;;;;16.33;10.10;;;27.30;85.50;;;;;;4222473;28;20513;-64
2022/01/28 04:44:23;;;;;;;17.17;10.20;;;27.40;85.70;;;;;;4220771;28;20541;-64
2022/01/28 04:48:46;;;;;;;15.23;9.75;;;27.60;85.20;;;;;;4212272;28;20075;-64
2022/01/28 05:02:15;;;;;;;17.95;9.40;;;27.80;84.70;;;;;;4213039;28;20075;-65
2022/01/28 05:04:42;;;;;;;16.70;9.13;;;27.90;83.10;;;;;;4215212;28;20039;-64
2022/01/28 05:26:54;;;;;;;15.73;10.20;;;28.30;81.40;;;;;;4213566;28;20048;-65
2022/01/28 05:28:58;;;;;;;15.60;11.40;;;28.30;81.10;;;;;;4212376;28;20052;-65
2022/01/28 05:31:03;;;;;;;16.08;9.73;;;28.30;81.00;;;;;;4211832;28;20051;-65
2022/01/28 05:33:07;;;;;;;12.95;8.98;;;28.40;80.60;;;;;;4213941;28;20557;-65
2022/01/28 05:35:11;;;;;;;14.77;8.70;;;28.40;80.70;;;;;;4210567;28;20082;-65
2022/01/28 05:37:15;;;;;;;13.63;8.52;;;28.50;80.40;;;;;;4212883;28;20139;-64
2022/01/28 05:39:20;;;;;;;16.27;8.45;;;28.40;79.30;;;;;;4214054;28;20040;-65
2022/01/28 05:41:24;;;;;;;15.10;9.05;;;28.40;78.80;;;;;;4213072;28;20048;-65
2022/01/28 05:43:28;;;;;;;13.15;8.82;;;28.50;80.00;;;;;;4212561;28;20118;-65
2022/01/28 05:45:33;;;;;;;14.20;8.35;;;28.50;80.70;;;;;;4193646;28;20058;-65
2022/01/28 05:47:37;;;;;;;14.10;7.80;;;28.60;80.40;;;;;;4214902;28;20047;-65
2022/01/28 05:49:42;;;;;;;17.98;8.18;;;28.70;78.80;;;;;;4212743;28;20535;-65
2022/01/28 05:51:46;;;;;;;11.52;7.18;;;28.70;78.90;;;;;;4212762;28;20130;-65
2022/01/28 05:53:53;;;;;;;14.35;8.45;;;28.70;78.60;;;;;;4210024;28;20055;-65
2022/01/28 05:55:58;;;;;;;12.15;7.93;;;28.70;78.90;;;;;;4213167;28;20051;-65
2022/01/28 05:58:02;;;;;;;14.65;8.18;;;28.80;78.90;;;;;;4213690;28;20059;-65
2022/01/28 06:00:06;;;;;;;13.50;7.53;;;28.80;77.90;;;;;;4204069;28;20074;-65
2022/01/28 06:02:18;;;;;;;10.07;6.75;;;28.90;77.60;;;;;;4218160;28;20071;-65
2022/01/28 06:04:23;;;;;;;10.95;7.63;;;28.90;76.20;;;;;;4218188;28;20052;-65
2022/01/28 06:06:28;;;;;;;14.60;7.78;;;28.90;76.10;;;;;;4207533;28;20075;-65
2022/01/28 06:08:32;;;;;;;13.40;7.15;;;28.90;75.90;;;;;;4221340;28;20135;-64
2022/01/28 06:10:36;;;;;;;12.82;6.32;;;29.00;74.80;;;;;;4219903;28;20044;-64
2022/01/28 06:12:45;;;;;;;13.15;7.10;;;28.90;73.90;;;;;;4221993;28;20506;-65
2022/01/28 06:14:49;;;;;;;13.75;6.88;;;29.00;73.30;;;;;;4219811;28;20052;-65
2022/01/28 06:16:53;;;;;;;13.15;6.82;;;29.00;73.70;;;;;;4226464;28;20036;-65
2022/01/28 06:18:57;;;;;;;12.98;6.95;;;29.00;73.40;;;;;;4206045;28;20089;-65
2022/01/28 06:21:02;;;;;;;11.68;7.20;;;29.00;74.00;;;;;;4218898;28;20502;-64
2022/01/28 06:23:06;;;;;;;14.40;7.40;;;29.10;74.20;;;;;;4214212;28;20042;-63
2022/01/28 06:25:13;;;;;;;11.25;7.38;;;29.00;74.10;;;;;;4215536;28;20510;-64
2022/01/28 06:27:17;;;;;;;14.50;7.20;;;29.10;74.00;;;;;;4209818;28;20051;-64
2022/01/28 06:29:21;;;;;;;13.32;7.57;;;29.10;73.60;;;;;;4215222;28;20056;-64
2022/01/28 06:31:25;;;;;;;12.82;7.55;;;29.20;73.50;;;;;;4211094;28;20127;-65
2022/01/28 06:33:30;;;;;;;13.70;8.55;;;29.20;73.90;;;;;;4215363;28;20079;-64
2022/01/28 06:35:34;;;;;;;11.52;7.80;;;29.30;72.50;;;;;;4196427;28;20474;-65
2022/01/28 06:37:39;;;;;;;10.40;7.32;;;29.30;72.80;;;;;;4218685;28;20044;-65
2022/01/28 06:39:43;;;;;;;12.68;6.90;;;29.40;73.40;;;;;;4213298;28;20036;-64
2022/01/28 06:41:47;;;;;;;9.52;6.47;;;29.40;73.90;;;;;;4196449;28;20535;-64
2022/01/28 06:43:51;;;;;;;15.07;7.55;;;29.40;74.00;;;;;;4215814;28;20448;-65
2022/01/28 06:45:56;;;;;;;11.43;6.97;;;29.40;74.40;;;;;;4211456;28;20044;-65
2022/01/28 06:48:00;;;;;;;12.32;7.50;;;29.40;72.60;;;;;;4196069;28;20040;-64
2022/01/28 06:50:05;;;;;;;11.65;7.35;;;29.40;73.00;;;;;;4211665;28;20050;-65
2022/01/28 06:52:09;;;;;;;12.18;7.68;;;29.40;73.50;;;;;;4197673;28;20068;-65
2022/01/28 06:54:17;;;;;;;11.32;7.30;;;29.40;73.50;;;;;;4210130;28;20051;-65
2022/01/28 06:56:21;;;;;;;13.60;7.68;;;29.50;73.40;;;;;;4194897;28;20065;-64
2022/01/28 06:58:25;;;;;;;15.63;7.78;;;29.50;73.30;;;;;;4211618;28;20444;-64
2022/01/28 07:00:36;;;;;;;10.25;7.45;;;29.50;74.10;;;;;;4211011;28;20052;-64
2022/01/28 07:02:41;;;;;;;12.65;7.82;;;29.50;73.30;;;;;;4210266;28;20044;-64
2022/01/28 07:04:45;;;;;;;12.93;8.32;;;29.50;73.60;;;;;;4197287;28;20036;-64
2022/01/28 07:06:50;;;;;;;13.60;8.25;;;29.60;73.40;;;;;;4215144;28;20498;-64
2022/01/28 07:08:54;;;;;;;12.65;8.30;;;29.60;73.40;;;;;;4212715;28;20132;-62
2022/01/28 07:10:59;;;;;;;12.98;7.97;;;29.50;73.40;;;;;;4211099;28;20042;-65
2022/01/28 07:13:03;;;;;;;14.40;8.35;;;29.60;72.70;;;;;;4213066;28;20401;-64
2022/01/28 07:15:08;;;;;;;14.40;7.80;;;29.60;73.10;;;;;;4196344;28;20055;-64
2022/01/28 07:17:13;;;;;;;11.63;7.97;;;29.60;73.10;;;;;;4194052;28;20368;-64
2022/01/28 07:19:17;;;;;;;10.60;8.05;;;29.60;73.00;;;;;;4212833;28;20043;-64
2022/01/28 07:21:21;;;;;;;13.93;7.68;;;29.60;73.00;;;;;;4213952;28;20173;-64
2022/01/28 07:23:26;;;;;;;13.63;8.07;;;29.70;73.00;;;;;;4215527;28;20063;-64
2022/01/28 07:25:30;;;;;;;11.27;7.60;;;29.70;73.10;;;;;;4212501;28;20040;-64
2022/01/28 07:27:34;;;;;;;12.38;8.30;;;29.60;72.80;;;;;;4211518;28;20146;-64
2022/01/28 07:29:38;;;;;;;12.70;8.60;;;29.60;72.60;;;;;;4209124;28;20044;-65
2022/01/28 07:31:43;;;;;;;13.30;8.55;;;29.70;71.70;;;;;;4215929;28;20052;-64
2022/01/28 07:33:47;;;;;;;14.55;8.52;;;29.80;72.10;;;;;;4212206;28;20608;-64
2022/01/28 07:35:51;;;;;;;13.18;8.38;;;29.70;71.40;;;;;;4208887;28;20678;-63
2022/01/28 07:37:55;;;;;;;13.98;8.55;;;29.70;71.90;;;;;;4211145;28;20044;-64
2022/01/28 07:40:02;;;;;;;12.63;8.65;;;29.70;71.50;;;;;;4212306;28;20126;-65
2022/01/28 07:42:07;;;;;;;12.18;8.82;;;29.70;72.20;;;;;;4215645;28;20040;-64
2022/01/28 07:44:11;;;;;;;12.40;8.45;;;29.70;72.20;;;;;;4213197;28;20163;-64
2022/01/28 07:46:16;;;;;;;13.43;8.98;;;29.80;71.40;;;;;;4216031;28;20102;-64
2022/01/28 07:48:20;;;;;;;14.57;8.77;;;29.80;71.90;;;;;;4213399;28;20510;-65
2022/01/28 07:50:24;;;;;;;12.52;9.10;;;29.80;72.40;;;;;;4199425;28;20101;-64
2022/01/28 07:52:29;;;;;;;15.10;9.15;;;29.90;71.80;;;;;;4197730;28;20449;-64
2022/01/28 07:54:33;;;;;;;16.58;8.77;;;29.90;72.80;;;;;;4201659;28;20059;-64
2022/01/28 07:56:37;;;;;;;19.85;9.98;;;29.80;73.10;;;;;;4209216;28;20048;-63
2022/01/28 07:58:42;;;;;;;14.15;9.07;;;29.80;73.30;;;;;;4194345;28;20098;-64
2022/01/28 08:00:46;;;;;;;12.07;8.70;;;29.90;73.00;;;;;;4210922;28;20091;-63
2022/01/28 08:02:51;;;;;;;11.65;8.00;;;29.90;72.30;;;;;;4206281;28;20073;-64
2022/01/28 08:04:56;;;;;;;13.75;8.52;;;29.90;72.30;;;;;;4208872;28;20040;-64
2022/01/28 08:07:00;;;;;;;11.70;9.05;;;29.90;72.20;;;;;;4209902;28;20578;-63
2022/01/28 08:09:05;;;;;;;16.23;9.52;;;29.90;72.10;;;;;;4196990;28;20052;-63
2022/01/28 08:11:09;;;;;;;13.23;9.05;;;29.90;72.70;;;;;;4214513;28;20052;-63
2022/01/28 08:13:13;;;;;;;14.98;8.75;;;29.90;72.70;;;;;;4212938;28;20510;-63
2022/01/28 08:15:18;;;;;;;17.45;9.30;;;29.90;72.70;;;;;;4215644;28;20036;-63
2022/01/28 08:17:22;;;;;;;17.38;9.77;;;29.90;72.10;;;;;;4213913;28;20040;-63
2022/01/28 08:19:26;;;;;;;16.45;9.73;;;29.90;71.10;;;;;;4213076;28;20032;-64
2022/01/28 08:21:31;;;;;;;16.52;9.73;;;29.90;71.60;;;;;;4214002;28;20040;-64
2022/01/28 08:23:36;;;;;;;20.75;9.90;;;29.90;72.10;;;;;;4212163;28;20055;-64
2022/01/28 08:25:40;;;;;;;19.50;9.70;;;29.80;72.20;;;;;;4206268;28;20680;-64
2022/01/28 08:27:45;;;;;;;13.80;9.95;;;29.80;72.10;;;;;;4212257;28;20040;-63
2022/01/28 08:29:49;;;;;;;16.70;9.48;;;29.90;71.70;;;;;;4215708;28;20050;-64
2022/01/28 08:31:53;;;;;;;16.58;9.77;;;29.90;71.70;;;;;;4212480;28;20047;-64
2022/01/28 08:33:58;;;;;;;17.58;9.43;;;29.90;71.60;;;;;;4210633;28;20054;-62
2022/01/28 08:36:02;;;;;;;13.85;10.15;;;29.80;71.90;;;;;;4212637;28;20036;-63
2022/01/28 08:38:16;;;;;;;14.00;9.65;;;29.70;72.30;;;;;;4212987;28;20452;-63
2022/01/28 08:40:20;;;;;;;12.93;9.32;;;29.70;72.10;;;;;;4208931;28;20151;-64
2022/01/28 08:42:24;;;;;;;15.30;9.45;;;29.70;72.50;;;;;;4213411;28;20036;-63
2022/01/28 08:44:28;;;;;;;13.82;8.52;;;29.70;73.10;;;;;;4206335;28;20048;-63
2022/01/28 08:46:33;;;;;;;13.30;9.27;;;29.70;73.20;;;;;;4203180;28;20089;-63
2022/01/28 08:48:37;;;;;;;14.85;8.88;;;29.80;73.20;;;;;;4214098;28;20082;-63
2022/01/28 08:50:42;;;;;;;16.15;9.27;;;29.80;72.70;;;;;;4212688;28;20052;-63
2022/01/28 08:52:46;;;;;;;15.20;8.93;;;29.80;72.80;;;;;;4210124;28;20067;-63
2022/01/28 08:54:51;;;;;;;13.75;8.68;;;29.80;72.70;;;;;;4212958;28;20495;-63
2022/01/28 08:56:55;;;;;;;12.88;8.73;;;29.80;72.80;;;;;;4213391;28;20043;-64
2022/01/28 08:59:11;;;;;;;11.35;8.40;;;29.80;73.20;;;;;;4198946;28;20039;-64
2022/01/28 09:01:16;;;;;;;16.27;9.05;;;29.80;74.00;;;;;;4197210;28;20045;-64
2022/01/28 09:03:21;;;;;;;12.68;8.52;;;29.80;72.90;;;;;;4212608;28;20048;-64
2022/01/28 09:05:25;;;;;;;13.35;8.82;;;29.80;73.00;;;;;;4212040;28;20048;-64
2022/01/28 09:07:30;;;;;;;13.00;8.80;;;29.80;72.40;;;;;;4215927;28;20044;-64
2022/01/28 09:09:49;;;;;;;13.40;8.55;;;29.80;72.00;;;;;;4214731;28;20070;-64
2022/01/28 09:12:06;;;;;;;12.85;8.00;;;29.80;72.00;;;;;;4213052;28;20056;-63
2022/01/28 09:14:13;;;;;;;14.05;8.48;;;29.80;72.30;;;;;;4209553;28;20142;-64
2022/01/28 09:16:17;;;;;;;13.48;8.60;;;29.80;72.40;;;;;;4208590;28;20364;-63
2022/01/28 09:18:22;;;;;;;14.45;8.57;;;29.80;72.40;;;;;;4213681;28;20088;-64
2022/01/28 09:20:27;;;;;;;16.05;8.95;;;29.80;72.80;;;;;;4208713;28;20406;-64
2022/01/28 09:22:31;;;;;;;14.98;8.90;;;29.80;72.80;;;;;;4212395;28;20093;-64
2022/01/28 09:24:35;;;;;;;12.35;8.60;;;29.70;72.70;;;;;;4220074;28;20046;-64
2022/01/28 09:26:39;;;;;;;12.35;8.90;;;29.80;72.80;;;;;;4206701;28;20047;-64
2022/01/28 09:28:43;;;;;;;11.48;9.02;;;29.70;72.80;;;;;;4210463;28;20063;-64
2022/01/28 09:30:48;;;;;;;14.88;10.27;;;29.80;72.50;;;;;;4212897;28;20101;-62
2022/01/28 09:32:53;;;;;;;20.13;10.07;;;29.80;72.50;;;;;;4212884;28;20036;-63
2022/01/28 09:34:57;;;;;;;15.38;8.95;;;29.70;72.00;;;;;;4210960;28;20412;-63
2022/01/28 09:37:01;;;;;;;17.52;9.27;;;29.70;72.20;;;;;;4209125;28;20039;-63
2022/01/28 09:39:06;;;;;;;14.48;8.70;;;29.70;72.50;;;;;;4198904;28;20435;-63
2022/01/28 09:41:11;;;;;;;15.70;8.52;;;29.70;72.90;;;;;;4214999;28;20402;-63
2022/01/28 09:43:20;;;;;;;13.05;8.38;;;29.70;72.90;;;;;;4211010;28;20134;-63
2022/01/28 09:45:25;;;;;;;15.50;8.68;;;29.70;72.80;;;;;;4211922;28;20099;-63
2022/01/28 09:47:30;;;;;;;16.15;8.75;;;29.70;72.60;;;;;;4213484;28;20131;-67
2022/01/28 09:49:36;;;;;;;12.75;8.50;;;29.70;72.40;;;;;;4216607;28;20089;-68
2022/01/28 09:51:41;;;;;;;16.52;8.65;;;29.60;72.40;;;;;;4210907;28;20048;-68
2022/01/28 09:53:45;;;;;;;17.75;8.88;;;29.60;72.50;;;;;;4216101;28;20520;-69
2022/01/28 09:55:50;;;;;;;13.98;8.80;;;29.60;72.00;;;;;;4191070;28;20438;-69
2022/01/28 09:57:57;;;;;;;14.15;8.25;;;29.60;72.40;;;;;;4193961;28;20044;-68
2022/01/28 10:00:03;;;;;;;12.07;8.50;;;29.60;72.30;;;;;;4213543;28;20036;-68
2022/01/28 10:02:12;;;;;;;18.48;8.18;;;29.60;72.20;;;;;;4212935;28;20098;-69
2022/01/28 10:04:20;;;;;;;16.42;9.20;;;29.50;72.20;;;;;;4212019;28;20044;-69
2022/01/28 10:06:35;;;;;;;14.80;8.75;;;29.50;72.40;;;;;;4189688;28;20050;-68
2022/01/28 10:08:41;;;;;;;17.75;9.32;;;29.50;72.80;;;;;;4212725;28;20047;-69
2022/01/28 10:10:52;;;;;;;13.43;9.10;;;29.50;73.40;;;;;;4211785;28;20040;-67
2022/01/28 10:13:11;;;;;;;16.70;9.10;;;29.50;73.60;;;;;;4212070;28;20052;-68
2022/01/28 10:15:28;;;;;;;14.57;8.73;;;29.50;73.50;;;;;;4212237;28;20047;-68
2022/01/28 10:17:51;;;;;;;15.90;8.55;;;29.40;73.30;;;;;;4206945;28;20085;-68
2022/01/28 10:19:56;;;;;;;17.98;8.82;;;29.40;73.30;;;;;;4211950;28;20036;-67
2022/01/28 10:22:00;;;;;;;18.05;9.25;;;29.40;73.40;;;;;;4179480;28;20049;-67
2022/01/28 10:24:17;;;;;;;14.35;8.88;;;29.40;73.40;;;;;;4189486;28;20082;-67
2022/01/28 10:26:46;;;;;;;17.27;8.77;;;29.30;73.50;;;;;;4189512;28;20053;-67
2022/01/28 10:28:52;;;;;;;19.52;10.10;;;29.30;73.90;;;;;;4190964;28;20139;-68
2022/01/28 10:30:56;;;;;;;19.35;9.43;;;29.30;74.40;;;;;;4195410;28;20048;-67
2022/01/28 10:33:17;;;;;;;27.90;13.02;;;29.30;74.50;;;;;;4192540;28;20052;-68
2022/01/28 10:35:31;;;;;;;22.05;14.77;;;29.30;74.90;;;;;;4194171;28;20083;-68
2022/01/28 10:37:36;;;;;;;24.65;14.60;;;29.20;75.20;;;;;;4191260;28;20131;-70
2022/01/28 10:40:01;;;;;;;22.92;13.85;;;29.20;75.20;;;;;;4192493;28;20614;-68
2022/01/28 10:42:05;;;;;;;27.45;14.77;;;29.20;75.40;;;;;;4192311;28;20044;-67
2022/01/28 10:44:11;;;;;;;25.73;13.57;;;29.20;75.60;;;;;;4197075;28;20062;-68
2022/01/28 10:46:34;;;;;;;22.88;13.80;;;29.10;76.20;;;;;;4176686;28;20132;-68
2022/01/28 10:48:54;;;;;;;22.10;13.50;;;29.10;77.20;;;;;;4191293;28;20044;-68
2022/01/28 10:50:58;;;;;;;24.88;14.30;;;29.10;76.90;;;;;;4191611;28;20040;-67
2022/01/28 10:53:03;;;;;;;22.92;13.23;;;29.10;76.90;;;;;;4185907;28;20097;-68
2022/01/28 10:55:07;;;;;;;22.88;12.88;;;29.00;76.90;;;;;;4212543;28;20043;-66
2022/01/28 10:57:12;;;;;;;18.95;13.00;;;29.00;76.90;;;;;;4216316;28;20040;-69
2022/01/28 10:59:18;;;;;;;22.45;13.63;;;29.00;77.20;;;;;;4211956;28;20122;-68
2022/01/28 11:01:24;;;;;;;22.67;13.95;;;29.00;77.30;;;;;;4185063;28;20045;-67
2022/01/28 11:03:29;;;;;;;24.73;14.25;;;28.90;77.40;;;;;;4206804;28;20043;-67
2022/01/28 11:05:34;;;;;;;22.23;13.98;;;28.90;77.60;;;;;;4208028;28;20048;-68
2022/01/28 11:07:39;;;;;;;26.13;15.23;;;28.90;77.70;;;;;;4209352;28;20048;-68
2022/01/28 11:09:43;;;;;;;29.98;16.02;;;28.80;78.20;;;;;;4206195;28;20852;-67
2022/01/28 11:11:48;;;;;;;24.85;15.13;;;28.80;78.60;;;;;;4194726;28;20040;-68
2022/01/28 11:13:52;;;;;;;32.42;15.07;;;28.80;79.20;;;;;;4209152;28;20086;-66
2022/01/28 11:15:57;;;;;;;36.40;15.40;;;28.70;79.80;;;;;;4213428;28;20051;-68
2022/01/28 11:18:03;;;;;;;34.90;16.52;;;28.70;79.60;;;;;;4207789;28;20056;-67
2022/01/28 11:20:08;;;;;;;36.88;16.98;;;28.60;79.80;;;;;;4215066;28;20127;-67
2022/01/28 11:22:28;;;;;;;34.33;17.27;;;28.60;80.50;;;;;;4215437;28;20091;-67
2022/01/28 11:24:58;;;;;;;31.38;16.25;;;28.60;81.70;;;;;;4216352;28;20490;-66
2022/01/28 11:27:07;;;;;;;23.33;15.20;;;28.50;81.60;;;;;;4214626;28;20051;-68
2022/01/28 11:29:13;;;;;;;25.10;14.13;;;28.50;81.40;;;;;;4177950;28;20051;-68
2022/01/28 11:31:40;;;;;;;22.65;13.13;;;28.40;81.60;;;;;;4197156;28;20542;-68
2022/01/28 11:33:51;;;;;;;23.08;13.07;;;28.40;81.60;;;;;;4212705;28;20048;-68
2022/01/28 11:35:55;;;;;;;19.77;12.65;;;28.30;81.70;;;;;;4203918;28;20064;-69
2022/01/28 11:38:04;;;;;;;18.33;13.32;;;28.30;81.60;;;;;;4214506;28;20064;-68
2022/01/28 11:40:12;;;;;;;21.55;12.45;;;28.20;81.50;;;;;;4212511;28;20380;-69
2022/01/28 11:42:27;;;;;;;23.92;12.48;;;28.20;81.80;;;;;;4218031;28;20149;-68
2022/01/28 11:44:50;;;;;;;20.45;13.00;;;28.20;81.80;;;;;;4220466;28;20050;-69
2022/01/28 11:47:00;;;;;;;25.90;13.07;;;28.10;81.70;;;;;;4216016;28;20554;-69
2022/01/28 11:49:07;;;;;;;21.02;13.00;;;28.10;81.80;;;;;;4210027;28;20052;-69
2022/01/28 11:51:16;;;;;;;27.38;15.65;;;28.10;81.80;;;;;;4212951;28;20090;-70
2022/01/28 11:53:21;;;;;;;28.77;14.93;;;28.10;82.00;;;;;;4213226;28;20432;-70
2022/01/28 11:55:26;;;;;;;36.70;18.55;;;28.10;82.10;;;;;;4216377;28;20056;-70
2022/01/28 11:57:30;;;;;;;43.13;21.73;;;28.10;82.20;;;;;;4212549;28;20044;-69
2022/01/28 11:59:34;;;;;;;48.13;26.48;;;28.10;82.30;;;;;;4208399;28;20055;-69
2022/01/28 12:01:41;;;;;;;52.45;28.10;;;28.10;82.60;;;;;;4213961;28;20536;-69
2022/01/28 12:03:46;;;;;;;48.05;25.50;;;28.10;82.70;;;;;;4213048;28;20123;-70
2022/01/28 12:05:57;;;;;;;48.10;25.27;;;28.10;83.00;;;;;;4185634;28;20505;-69
2022/01/28 12:08:03;;;;;;;62.40;29.08;;;28.10;83.20;;;;;;4211706;28;20075;-69
2022/01/28 12:10:09;;;;;;;54.55;29.90;;;28.00;83.30;;;;;;4210693;28;20044;-69
2022/01/28 12:12:34;;;;;;;56.20;30.48;;;28.00;83.50;;;;;;4179871;28;20045;-69
2022/01/28 12:14:57;;;;;;;55.60;27.70;;;28.00;83.80;;;;;;4181505;28;20672;-69
2022/01/28 12:17:31;;;;;;;48.27;26.10;;;27.90;84.20;;;;;;4179534;28;20067;-69
2022/01/28 12:19:45;;;;;;;55.72;26.40;;;27.90;84.80;;;;;;4177649;28;20045;-69